This is the latest recevied weather packets stored in our database for station/object EA1PVC-10. If no packets are shown the sender has not sent any weather packets the latest 10 day(s).
| Time | Temp. | Humidity | Pressure | Rain* | Wind** | Luminosity | Snow |
|---|---|---|---|---|---|---|---|
| 1777791528 | 11.67° C | 100% | 920.3 hPa | - | - | - | - |
| 1777790628 | 11.67° C | 100% | 920.3 hPa | - | - | - | - |
| 1777789728 | 11.67° C | 100% | 920.2 hPa | - | - | - | - |
| 1777788828 | 11.11° C | 100% | 920.3 hPa | - | - | - | - |
| 1777787928 | 11.11° C | 100% | 920.1 hPa | - | - | - | - |
| 1777787028 | 11.11° C | 100% | 920.1 hPa | - | - | - | - |
| 1777786128 | 5.56° C | 100% | 912.3 hPa | - | - | - | - |
| 1777785214 | 11.11° C | 100% | 920.1 hPa | - | - | - | - |
| 1777784314 | 11.11° C | 95% | 920.3 hPa | - | - | - | - |
| 1777782514 | 11.67° C | 96% | 920.1 hPa | - | - | - | - |
| 1777781614 | 11.67° C | 95% | 920.2 hPa | - | - | - | - |
| 1777780714 | 11.11° C | 95% | 920.3 hPa | - | - | - | - |
| 1777779814 | 11.11° C | 94% | 920.2 hPa | - | - | - | - |
| 1777778914 | 11.11° C | 94% | 920.5 hPa | - | - | - | - |
| 1777778014 | 11.11° C | 94% | 920.5 hPa | - | - | - | - |
| 1777777114 | 0.56° C | 92% | 905 hPa | - | - | - | - |
| 1777776214 | 11.11° C | 94% | 920.5 hPa | - | - | - | - |
| 1777775314 | 6.11° C | 94% | 913.8 hPa | - | - | - | - |
| 1777774402 | 11.11° C | 94% | 920.6 hPa | - | - | - | - |
| 1777773502 | 11.11° C | 94% | 920.8 hPa | - | - | - | - |
| 1777772602 | 11.11° C | 94% | 920.8 hPa | - | - | - | - |
| 1777771702 | 11.11° C | 93% | 921 hPa | - | - | - | - |
| 1777770802 | 11.67° C | 92% | 921.1 hPa | - | - | - | - |
| 1777769902 | 11.67° C | 92% | 921.2 hPa | - | - | - | - |
| 1777769002 | 11.67° C | 92% | 921.4 hPa | - | - | - | - |
* Rain since midnight (hover to see other rain measurements)
** Current wind speed in m/s (hover to see current wind gust speed)